Time;durP1;ratioP1;P1;durP2;ratioP2;P2;SDS_P1;SDS_P2;PMS_P1;PMS_P2;Temp;Humidity;BMP_temperature;BMP_pressure;BME280_temperature;BME280_humidity;BME280_pressure;Samples;Min_cycle;Max_cycle;Signal;HPM_P1;HPM_P2
2024/03/11 00:00:38;;;;;;;40.87;36.83;;;;;;;;;;5011915;28;20439;-82
2024/03/11 00:03:08;;;;;;;37.77;34.07;;;;;;;;;;5006908;28;20454;-83
2024/03/11 00:05:36;;;;;;;40.33;36.40;;;;;;;;;;5001451;28;20428;-82
2024/03/11 00:08:04;;;;;;;41.07;37.23;;;;;;;;;;5015060;28;20457;-81
2024/03/11 00:10:33;;;;;;;40.13;36.20;;;;;;;;;;5014126;28;20475;-83
2024/03/11 00:13:00;;;;;;;40.00;36.13;;;;;;;;;;5006611;28;20907;-83
2024/03/11 00:15:27;;;;;;;41.63;37.20;;;;;;;;;;5011906;28;20443;-82
2024/03/11 00:17:55;;;;;;;40.40;36.70;;;;;;;;;;5010407;28;20946;-83
2024/03/11 00:20:25;;;;;;;42.10;37.70;;;;;;;;;;5005471;28;20473;-83
2024/03/11 00:22:52;;;;;;;40.57;36.40;;;;;;;;;;5009612;28;20862;-81
2024/03/11 00:25:21;;;;;;;43.20;39.33;;;;;;;;;;4999281;28;20477;-81
2024/03/11 00:27:48;;;;;;;44.03;39.40;;;;;;;;;;4999967;28;20481;-81
2024/03/11 00:30:15;;;;;;;44.90;40.23;;;;;;;;;;5002081;28;20488;-83
2024/03/11 00:32:45;;;;;;;41.33;37.40;;;;;;;;;;5006586;28;20815;-84
2024/03/11 00:35:13;;;;;;;46.50;37.30;;;;;;;;;;5005715;28;20615;-83
2024/03/11 00:37:42;;;;;;;40.73;36.87;;;;;;;;;;5008637;28;20465;-83
2024/03/11 00:40:09;;;;;;;45.03;40.60;;;;;;;;;;5010523;28;20506;-81
2024/03/11 00:42:38;;;;;;;41.07;36.90;;;;;;;;;;5003523;28;20468;-81
2024/03/11 00:45:06;;;;;;;43.53;39.27;;;;;;;;;;5004113;28;20477;-83
2024/03/11 00:47:34;;;;;;;41.13;37.13;;;;;;;;;;5006970;28;20497;-82
2024/03/11 00:50:06;;;;;;;36.17;32.60;;;;;;;;;;5008917;28;20511;-81
2024/03/11 00:52:33;;;;;;;39.73;35.80;;;;;;;;;;5009248;28;22380;-84
2024/03/11 00:55:02;;;;;;;39.57;35.63;;;;;;;;;;5006334;28;20446;-81
2024/03/11 00:57:29;;;;;;;38.47;34.37;;;;;;;;;;5004927;28;20453;-81
2024/03/11 00:59:56;;;;;;;41.80;37.90;;;;;;;;;;5002989;28;20443;-83
2024/03/11 01:02:24;;;;;;;41.67;37.53;;;;;;;;;;5004337;28;20463;-83
2024/03/11 01:04:52;;;;;;;40.37;36.27;;;;;;;;;;5008046;28;20881;-81
2024/03/11 01:07:19;;;;;;;41.47;37.33;;;;;;;;;;5013106;28;20526;-82
2024/03/11 01:09:46;;;;;;;40.60;36.33;;;;;;;;;;5004947;28;20910;-81
2024/03/11 01:12:14;;;;;;;39.17;35.33;;;;;;;;;;5000718;28;20527;-83
2024/03/11 01:14:42;;;;;;;41.47;37.50;;;;;;;;;;5002780;28;20480;-81
2024/03/11 01:17:09;;;;;;;42.67;38.40;;;;;;;;;;5007657;28;21031;-83
2024/03/11 01:19:36;;;;;;;39.57;35.57;;;;;;;;;;5003502;28;20501;-81
2024/03/11 01:22:03;;;;;;;41.33;37.13;;;;;;;;;;5008793;28;20483;-82
2024/03/11 01:24:30;;;;;;;39.30;35.47;;;;;;;;;;5006407;28;21013;-81
2024/03/11 01:26:57;;;;;;;42.53;38.23;;;;;;;;;;5009750;28;20523;-83
2024/03/11 01:29:26;;;;;;;42.50;38.33;;;;;;;;;;5007498;28;20478;-81
2024/03/11 01:31:53;;;;;;;40.07;35.90;;;;;;;;;;5011402;28;20448;-82
2024/03/11 01:34:22;;;;;;;40.73;36.60;;;;;;;;;;5027451;28;20508;-84
2024/03/11 01:36:49;;;;;;;40.17;36.17;;;;;;;;;;5021433;28;21845;-82
2024/03/11 01:39:25;;;;;;;41.60;37.50;;;;;;;;;;5013453;28;20836;-82
2024/03/11 01:41:53;;;;;;;41.07;36.90;;;;;;;;;;5006232;28;20422;-82
2024/03/11 01:44:20;;;;;;;42.23;36.43;;;;;;;;;;5012833;28;20488;-84
2024/03/11 01:46:50;;;;;;;41.10;36.80;;;;;;;;;;5010338;28;20473;-83
2024/03/11 01:49:17;;;;;;;40.07;35.87;;;;;;;;;;5010182;28;20480;-83
2024/03/11 01:51:45;;;;;;;39.60;35.80;;;;;;;;;;5011214;28;20459;-82
2024/03/11 01:54:12;;;;;;;39.43;35.53;;;;;;;;;;5004379;28;20479;-84
2024/03/11 01:56:39;;;;;;;41.30;37.00;;;;;;;;;;5007237;28;20867;-81
2024/03/11 01:59:08;;;;;;;41.17;36.73;;;;;;;;;;5018871;28;20460;-83
2024/03/11 02:01:36;;;;;;;40.43;36.23;;;;;;;;;;5008171;28;21183;-83
2024/03/11 02:04:04;;;;;;;42.57;38.23;;;;;;;;;;5008708;28;20458;-82
2024/03/11 02:06:31;;;;;;;40.20;36.37;;;;;;;;;;5011439;28;20461;-84
2024/03/11 02:08:58;;;;;;;42.27;38.00;;;;;;;;;;5015492;28;20848;-81
2024/03/11 02:11:25;;;;;;;39.67;35.63;;;;;;;;;;5012448;28;20508;-82
2024/03/11 02:13:53;;;;;;;40.27;36.27;;;;;;;;;;5005544;28;20508;-81
2024/03/11 02:16:22;;;;;;;40.97;36.77;;;;;;;;;;5011890;28;20452;-82
2024/03/11 02:18:50;;;;;;;42.23;37.80;;;;;;;;;;5000012;28;20909;-82
2024/03/11 02:21:19;;;;;;;41.67;37.50;;;;;;;;;;4999723;28;20464;-81
2024/03/11 02:23:47;;;;;;;39.17;35.50;;;;;;;;;;5004114;28;20498;-81
2024/03/11 02:26:16;;;;;;;39.93;35.90;;;;;;;;;;5000206;28;20457;-82
2024/03/11 02:28:43;;;;;;;38.53;34.63;;;;;;;;;;5015975;28;20985;-82
2024/03/11 02:31:10;;;;;;;42.27;37.93;;;;;;;;;;5014235;28;20461;-82
2024/03/11 02:33:37;;;;;;;39.37;35.50;;;;;;;;;;5012741;28;20849;-83
2024/03/11 02:36:04;;;;;;;39.07;34.97;;;;;;;;;;5011219;28;20448;-83
2024/03/11 02:38:31;;;;;;;41.00;36.93;;;;;;;;;;5014868;28;21005;-83
2024/03/11 02:41:00;;;;;;;40.13;36.00;;;;;;;;;;5011224;28;20734;-81
2024/03/11 02:43:27;;;;;;;38.93;35.00;;;;;;;;;;5004915;28;20831;-83
2024/03/11 02:45:55;;;;;;;41.67;37.47;;;;;;;;;;5000715;28;20500;-81
2024/03/11 02:48:22;;;;;;;43.90;39.30;;;;;;;;;;5000648;28;20531;-83
2024/03/11 02:50:49;;;;;;;39.50;35.53;;;;;;;;;;5005444;28;20490;-82
2024/03/11 02:53:16;;;;;;;40.73;36.50;;;;;;;;;;5010234;28;20453;-81
2024/03/11 02:55:43;;;;;;;42.30;37.80;;;;;;;;;;5003330;28;20522;-81
2024/03/11 02:58:11;;;;;;;41.33;37.23;;;;;;;;;;5010160;28;20961;-83
2024/03/11 03:00:38;;;;;;;40.27;36.07;;;;;;;;;;5004744;28;20924;-83
2024/03/11 03:03:06;;;;;;;41.27;37.07;;;;;;;;;;5001324;28;20840;-84
2024/03/11 03:05:33;;;;;;;41.00;37.10;;;;;;;;;;5002316;28;20452;-82
2024/03/11 03:08:00;;;;;;;42.70;38.13;;;;;;;;;;5003533;28;20443;-83
2024/03/11 03:10:28;;;;;;;41.67;36.93;;;;;;;;;;5006276;28;20493;-83
2024/03/11 03:12:55;;;;;;;42.60;38.10;;;;;;;;;;5001805;28;20830;-83
2024/03/11 03:15:23;;;;;;;43.50;39.07;;;;;;;;;;5011637;28;20506;-83
2024/03/11 03:17:50;;;;;;;40.13;35.87;;;;;;;;;;5011348;28;20494;-81
2024/03/11 03:20:18;;;;;;;43.73;36.67;;;;;;;;;;5005958;28;20420;-81
2024/03/11 03:22:45;;;;;;;41.23;37.33;;;;;;;;;;5009757;28;20456;-81
2024/03/11 03:25:13;;;;;;;44.33;37.30;;;;;;;;;;5496679;23;20469;-81
2024/03/11 03:27:40;;;;;;;44.03;38.93;;;;;;;;;;4976935;28;20474;-82
2024/03/11 03:30:08;;;;;;;43.63;39.20;;;;;;;;;;4972486;28;20461;-81
2024/03/11 03:32:37;;;;;;;43.57;38.87;;;;;;;;;;4983300;28;20462;-81
2024/03/11 03:35:05;;;;;;;43.30;38.87;;;;;;;;;;4973158;28;20512;-81
2024/03/11 03:37:32;;;;;;;44.77;40.00;;;;;;;;;;4977843;28;20953;-83
2024/03/11 03:39:59;;;;;;;43.97;39.27;;;;;;;;;;4967908;28;20501;-82
2024/03/11 03:42:27;;;;;;;43.77;39.17;;;;;;;;;;4968344;28;20467;-83
2024/03/11 03:44:55;;;;;;;43.30;38.67;;;;;;;;;;4967766;28;20515;-83
2024/03/11 03:47:22;;;;;;;47.13;42.10;;;;;;;;;;4973430;28;20543;-82
2024/03/11 03:49:50;;;;;;;45.03;40.20;;;;;;;;;;4971379;28;20481;-83
2024/03/11 03:52:18;;;;;;;46.77;42.17;;;;;;;;;;4971958;28;20450;-83
2024/03/11 03:54:45;;;;;;;46.00;41.27;;;;;;;;;;4966289;28;20536;-82
2024/03/11 03:57:12;;;;;;;50.60;43.60;;;;;;;;;;4967851;28;20466;-83
2024/03/11 03:59:39;;;;;;;47.37;42.47;;;;;;;;;;4971489;28;21047;-81
2024/03/11 04:02:08;;;;;;;48.77;42.53;;;;;;;;;;4961042;28;20473;-81
2024/03/11 04:04:34;;;;;;;48.60;43.47;;;;;;;;;;4958890;29;20558;-80
2024/03/11 04:07:03;;;;;;;52.33;46.40;;;;;;;;;;4959239;28;20792;-82
2024/03/11 04:09:30;;;;;;;47.47;42.17;;;;;;;;;;4958510;29;20461;-80
2024/03/11 04:11:57;;;;;;;50.67;45.07;;;;;;;;;;4958130;29;20429;-80
2024/03/11 04:14:24;;;;;;;53.00;47.40;;;;;;;;;;4959071;28;20505;-81
2024/03/11 04:16:51;;;;;;;56.20;47.97;;;;;;;;;;4980780;28;20989;-81
2024/03/11 04:19:18;;;;;;;62.60;51.23;;;;;;;;;;4996630;28;20420;-80
2024/03/11 04:21:45;;;;;;;57.37;48.50;;;;;;;;;;4966806;28;20442;-83
2024/03/11 04:24:14;;;;;;;58.50;49.37;;;;;;;;;;4959874;28;20487;-81
2024/03/11 04:26:41;;;;;;;57.83;50.00;;;;;;;;;;4971209;28;20451;-82
2024/03/11 04:29:08;;;;;;;63.30;50.63;;;;;;;;;;4969290;28;20523;-82
2024/03/11 04:31:35;;;;;;;56.33;47.77;;;;;;;;;;4975465;28;20564;-80
2024/03/11 04:34:02;;;;;;;61.57;50.10;;;;;;;;;;4975086;28;20500;-82
2024/03/11 04:36:30;;;;;;;61.90;49.70;;;;;;;;;;4969619;28;20992;-81
2024/03/11 04:38:57;;;;;;;63.97;50.63;;;;;;;;;;4980719;28;20479;-82
2024/03/11 04:41:25;;;;;;;61.63;49.27;;;;;;;;;;4972001;28;20462;-80
2024/03/11 04:43:52;;;;;;;62.73;49.93;;;;;;;;;;4975841;28;20877;-80
2024/03/11 04:46:19;;;;;;;61.77;49.80;;;;;;;;;;4974028;28;20504;-81
2024/03/11 04:48:46;;;;;;;62.07;53.27;;;;;;;;;;4975812;28;20472;-81
2024/03/11 04:51:13;;;;;;;57.70;48.77;;;;;;;;;;4976454;28;20465;-82
2024/03/11 04:56:16;;;;;;;59.83;51.17;;;;;;;;;;5120105;23;20559;-83
2024/03/11 04:58:44;;;;;;;64.17;52.23;;;;;;;;;;4985340;28;20470;-81
2024/03/11 05:01:12;;;;;;;60.23;49.93;;;;;;;;;;4976670;28;20445;-81
2024/03/11 05:03:39;;;;;;;63.50;48.03;;;;;;;;;;4985972;28;20481;-80
2024/03/11 05:06:06;;;;;;;60.30;49.57;;;;;;;;;;4993014;28;20443;-79
2024/03/11 05:08:33;;;;;;;66.03;50.80;;;;;;;;;;4984535;28;20513;-82
2024/03/11 05:11:01;;;;;;;60.87;51.90;;;;;;;;;;4981777;28;20513;-81
2024/03/11 05:13:28;;;;;;;58.50;51.13;;;;;;;;;;4985976;28;20466;-80
2024/03/11 05:15:57;;;;;;;72.10;53.50;;;;;;;;;;5000809;28;20413;-79
2024/03/11 05:18:24;;;;;;;68.27;50.83;;;;;;;;;;5001498;28;20523;-85
2024/03/11 05:20:51;;;;;;;55.70;48.10;;;;;;;;;;5005893;28;20440;-83
2024/03/11 05:23:18;;;;;;;64.67;52.50;;;;;;;;;;4990172;28;20422;-82
2024/03/11 05:25:45;;;;;;;58.37;48.83;;;;;;;;;;4996047;28;20436;-80
2024/03/11 05:28:12;;;;;;;56.87;47.13;;;;;;;;;;4996923;28;20424;-80
2024/03/11 05:30:40;;;;;;;61.90;50.40;;;;;;;;;;4995990;28;21016;-81
2024/03/11 05:33:09;;;;;;;58.85;50.45;;;;;;;;;;4994638;28;20458;-79
2024/03/11 05:35:37;;;;;;;64.30;50.97;;;;;;;;;;4996810;28;20277;-79
2024/03/11 05:38:04;;;;;;;64.90;52.40;;;;;;;;;;4996838;28;20500;-82
2024/03/11 05:40:31;;;;;;;68.57;52.37;;;;;;;;;;4995262;28;20459;-81
2024/03/11 05:42:58;;;;;;;65.27;51.43;;;;;;;;;;4975937;28;20540;-80
2024/03/11 05:45:25;;;;;;;68.63;52.47;;;;;;;;;;4981264;28;20452;-82
2024/03/11 05:47:52;;;;;;;69.27;52.17;;;;;;;;;;4989878;28;20650;-82
2024/03/11 05:50:20;;;;;;;65.10;51.83;;;;;;;;;;4987947;28;20463;-80
2024/03/11 05:52:48;;;;;;;65.77;53.60;;;;;;;;;;4988778;28;20431;-80
2024/03/11 05:55:15;;;;;;;68.53;53.97;;;;;;;;;;4987324;28;20561;-82
2024/03/11 05:57:43;;;;;;;70.20;54.27;;;;;;;;;;4995037;28;20452;-81
2024/03/11 06:00:15;;;;;;;67.60;54.13;;;;;;;;;;4990000;28;20464;-81
2024/03/11 06:02:42;;;;;;;63.20;48.80;;;;;;;;;;4985276;28;20435;-80
2024/03/11 06:05:19;;;;;;;68.67;52.50;;;;;;;;;;4994924;28;20230;-80
2024/03/11 06:07:47;;;;;;;71.73;55.90;;;;;;;;;;4976719;28;20417;-80
2024/03/11 06:10:14;;;;;;;61.47;52.57;;;;;;;;;;4979199;28;20485;-80
2024/03/11 06:12:43;;;;;;;68.80;54.57;;;;;;;;;;4996518;28;20898;-82
2024/03/11 06:15:11;;;;;;;66.43;53.30;;;;;;;;;;4987166;28;21000;-79
2024/03/11 06:17:38;;;;;;;68.50;53.37;;;;;;;;;;4997481;28;20469;-80
2024/03/11 06:20:09;;;;;;;64.90;53.60;;;;;;;;;;4993461;28;20847;-82
2024/03/11 06:22:37;;;;;;;66.53;52.40;;;;;;;;;;4980708;28;20653;-82
2024/03/11 06:25:07;;;;;;;66.10;53.70;;;;;;;;;;4979725;28;20510;-80
2024/03/11 06:27:34;;;;;;;68.47;53.30;;;;;;;;;;4980771;28;20932;-81
2024/03/11 06:30:01;;;;;;;63.03;52.10;;;;;;;;;;4980883;28;20433;-82
2024/03/11 06:32:30;;;;;;;64.17;50.00;;;;;;;;;;4981345;28;20441;-80
2024/03/11 06:34:57;;;;;;;64.87;50.60;;;;;;;;;;4999447;28;20464;-79
2024/03/11 06:37:24;;;;;;;63.23;52.07;;;;;;;;;;5000527;28;20479;-80
2024/03/11 06:39:51;;;;;;;70.20;53.07;;;;;;;;;;5000480;28;20442;-81
2024/03/11 06:42:20;;;;;;;64.80;54.20;;;;;;;;;;4999339;28;20512;-82
2024/03/11 06:44:47;;;;;;;60.53;48.87;;;;;;;;;;4999842;28;20472;-79
2024/03/11 06:47:14;;;;;;;62.63;50.80;;;;;;;;;;4999806;28;20511;-80
2024/03/11 06:49:41;;;;;;;66.70;52.03;;;;;;;;;;4999600;28;20455;-81
2024/03/11 06:52:09;;;;;;;62.50;50.73;;;;;;;;;;4999447;28;20480;-81
2024/03/11 06:54:36;;;;;;;68.70;52.93;;;;;;;;;;4999420;28;20540;-81
2024/03/11 06:57:05;;;;;;;59.20;50.90;;;;;;;;;;4999154;28;20885;-81
2024/03/11 06:59:33;;;;;;;70.67;51.97;;;;;;;;;;5000111;28;20457;-81
2024/03/11 07:02:00;;;;;;;65.67;52.00;;;;;;;;;;4998977;28;20479;-79
2024/03/11 07:04:27;;;;;;;63.03;49.33;;;;;;;;;;4999373;28;20482;-79
2024/03/11 07:06:56;;;;;;;65.87;53.90;;;;;;;;;;4998944;28;20455;-80
2024/03/11 07:09:23;;;;;;;63.57;52.83;;;;;;;;;;4999370;28;20451;-79
2024/03/11 07:11:50;;;;;;;67.97;51.40;;;;;;;;;;4983224;28;20509;-84
2024/03/11 07:14:17;;;;;;;64.97;54.60;;;;;;;;;;4993084;28;20507;-80
2024/03/11 07:16:46;;;;;;;63.20;51.63;;;;;;;;;;4990602;28;20524;-80
2024/03/11 07:19:13;;;;;;;62.10;50.37;;;;;;;;;;4979644;28;20432;-80
2024/03/11 07:21:40;;;;;;;51.37;40.97;;;;;;;;;;4978684;28;20453;-79
2024/03/11 07:24:07;;;;;;;60.40;48.63;;;;;;;;;;4979286;28;20482;-79
2024/03/11 07:26:36;;;;;;;64.67;51.67;;;;;;;;;;4979321;28;20450;-79
2024/03/11 07:29:03;;;;;;;58.30;50.00;;;;;;;;;;4987262;28;20461;-79
2024/03/11 07:31:30;;;;;;;64.07;52.20;;;;;;;;;;4989420;28;20517;-78
2024/03/11 07:33:59;;;;;;;64.20;51.67;;;;;;;;;;4978292;28;20533;-78
2024/03/11 07:36:26;;;;;;;58.27;47.70;;;;;;;;;;4975456;28;20455;-79
2024/03/11 07:38:54;;;;;;;60.67;51.33;;;;;;;;;;4976564;28;20462;-79
2024/03/11 07:44:26;;;;;;;58.40;50.27;;;;;;;;;;4976817;28;20762;-79
2024/03/11 07:46:53;;;;;;;60.20;50.53;;;;;;;;;;4978568;28;20458;-79
2024/03/11 07:49:21;;;;;;;67.30;53.50;;;;;;;;;;4978423;28;20472;-81
2024/03/11 07:51:49;;;;;;;60.07;50.90;;;;;;;;;;4977229;28;20480;-80
2024/03/11 07:54:16;;;;;;;62.93;49.77;;;;;;;;;;4977801;28;20453;-80
2024/03/11 07:56:43;;;;;;;61.13;49.83;;;;;;;;;;4978988;28;20450;-79
2024/03/11 07:59:10;;;;;;;56.73;48.97;;;;;;;;;;4977988;28;20459;-79
2024/03/11 08:01:37;;;;;;;56.80;48.67;;;;;;;;;;4976097;28;20533;-79
2024/03/11 08:04:08;;;;;;;60.50;50.40;;;;;;;;;;4977838;28;20463;-78
2024/03/11 08:06:39;;;;;;;57.03;48.97;;;;;;;;;;4977192;28;20505;-79
2024/03/11 08:09:07;;;;;;;59.40;51.37;;;;;;;;;;4977571;28;20412;-79
2024/03/11 08:11:35;;;;;;;54.70;46.00;;;;;;;;;;4976811;28;20482;-78
2024/03/11 08:14:04;;;;;;;56.63;48.03;;;;;;;;;;4977599;28;20437;-80
2024/03/11 08:16:31;;;;;;;56.60;48.30;;;;;;;;;;4978922;28;20428;-78
2024/03/11 08:18:58;;;;;;;54.77;46.37;;;;;;;;;;4979347;28;20421;-79
2024/03/11 08:21:25;;;;;;;53.73;46.27;;;;;;;;;;4978242;28;20512;-80
2024/03/11 08:23:54;;;;;;;54.43;48.50;;;;;;;;;;4976534;28;20474;-80
2024/03/11 08:26:21;;;;;;;63.80;49.47;;;;;;;;;;4977717;28;20810;-79
2024/03/11 08:28:48;;;;;;;55.70;46.77;;;;;;;;;;4977675;28;20446;-80
2024/03/11 08:31:16;;;;;;;56.23;46.23;;;;;;;;;;4976503;28;20490;-79
2024/03/11 08:33:43;;;;;;;60.70;48.40;;;;;;;;;;4977471;28;20467;-79
2024/03/11 08:36:10;;;;;;;56.67;48.07;;;;;;;;;;4976906;28;20558;-79
2024/03/11 08:38:38;;;;;;;54.60;46.57;;;;;;;;;;4977630;28;20441;-80
2024/03/11 08:41:06;;;;;;;51.07;45.50;;;;;;;;;;4976026;28;20477;-79
2024/03/11 08:43:34;;;;;;;51.17;45.20;;;;;;;;;;4977636;28;20883;-81
2024/03/11 08:46:01;;;;;;;51.67;46.07;;;;;;;;;;4977138;28;20499;-80
2024/03/11 08:48:30;;;;;;;53.63;46.30;;;;;;;;;;4977411;28;20501;-80
2024/03/11 08:50:57;;;;;;;51.40;44.07;;;;;;;;;;4976964;28;20485;-79
2024/03/11 08:53:26;;;;;;;54.33;44.03;;;;;;;;;;4977866;28;20433;-80
2024/03/11 08:55:53;;;;;;;55.20;47.90;;;;;;;;;;4976707;28;20489;-79
2024/03/11 08:58:22;;;;;;;49.50;42.70;;;;;;;;;;4977054;28;20439;-80
2024/03/11 09:00:51;;;;;;;53.63;45.50;;;;;;;;;;4975993;28;20502;-79
2024/03/11 09:03:19;;;;;;;51.60;45.97;;;;;;;;;;4982606;28;20465;-81
2024/03/11 09:05:46;;;;;;;51.97;44.90;;;;;;;;;;4991934;28;20447;-79
2024/03/11 09:08:13;;;;;;;48.40;43.23;;;;;;;;;;4991621;28;20437;-80
2024/03/11 09:10:41;;;;;;;49.70;44.20;;;;;;;;;;4987282;28;20887;-79
2024/03/11 09:13:12;;;;;;;54.40;46.23;;;;;;;;;;4976408;28;20458;-80
2024/03/11 09:15:44;;;;;;;55.47;47.20;;;;;;;;;;4977233;28;20439;-79
2024/03/11 09:18:11;;;;;;;53.07;46.03;;;;;;;;;;4977581;28;20985;-80
2024/03/11 09:20:38;;;;;;;50.53;43.40;;;;;;;;;;4974617;28;20758;-80
2024/03/11 09:23:07;;;;;;;56.07;45.97;;;;;;;;;;4976990;28;20431;-80
2024/03/11 09:25:36;;;;;;;52.10;42.67;;;;;;;;;;4976800;28;20512;-80
2024/03/11 09:28:04;;;;;;;52.00;45.10;;;;;;;;;;4976322;28;20445;-81
2024/03/11 09:30:32;;;;;;;52.40;44.33;;;;;;;;;;4976523;28;20482;-80
2024/03/11 09:33:01;;;;;;;52.13;44.23;;;;;;;;;;4976574;28;20498;-79
2024/03/11 09:35:28;;;;;;;48.93;43.53;;;;;;;;;;4976294;28;20470;-80
2024/03/11 09:37:56;;;;;;;53.87;42.70;;;;;;;;;;4975822;28;20916;-79
2024/03/11 09:40:24;;;;;;;50.73;44.30;;;;;;;;;;4977054;28;20409;-79
2024/03/11 09:42:54;;;;;;;49.27;43.20;;;;;;;;;;4976264;28;20534;-79
2024/03/11 09:45:22;;;;;;;46.63;41.50;;;;;;;;;;4976878;28;20502;-80
2024/03/11 09:47:55;;;;;;;45.80;38.40;;;;;;;;;;4976641;28;20424;-79
2024/03/11 09:50:26;;;;;;;48.23;40.07;;;;;;;;;;4977308;28;20451;-81
2024/03/11 09:52:56;;;;;;;47.37;40.33;;;;;;;;;;4978115;28;20498;-79
2024/03/11 09:55:24;;;;;;;41.30;36.97;;;;;;;;;;4980036;28;20478;-81
2024/03/11 09:57:52;;;;;;;38.77;34.70;;;;;;;;;;4979994;28;20465;-79
2024/03/11 10:00:23;;;;;;;40.47;36.33;;;;;;;;;;4980662;28;20450;-79
2024/03/11 10:02:53;;;;;;;37.60;33.90;;;;;;;;;;4979428;28;20473;-79
2024/03/11 10:05:22;;;;;;;37.53;33.23;;;;;;;;;;4979730;28;20981;-79
2024/03/11 10:07:52;;;;;;;35.80;32.13;;;;;;;;;;4980438;28;20445;-80
2024/03/11 10:10:20;;;;;;;33.80;30.40;;;;;;;;;;4979443;28;20942;-79
2024/03/11 10:12:52;;;;;;;32.67;29.07;;;;;;;;;;4978379;28;20584;-80
2024/03/11 10:15:27;;;;;;;32.93;29.67;;;;;;;;;;4979170;28;20461;-79
2024/03/11 10:17:55;;;;;;;31.20;28.20;;;;;;;;;;4980348;28;20440;-80
2024/03/11 10:20:22;;;;;;;37.50;30.27;;;;;;;;;;4979614;28;20854;-80
2024/03/11 10:22:49;;;;;;;29.33;26.53;;;;;;;;;;4979065;28;20429;-79
2024/03/11 10:25:27;;;;;;;29.83;27.13;;;;;;;;;;4980082;28;20478;-80
2024/03/11 10:27:55;;;;;;;29.87;27.10;;;;;;;;;;4979493;28;20521;-80
2024/03/11 10:30:23;;;;;;;27.80;25.07;;;;;;;;;;4979534;28;20442;-81
2024/03/11 10:32:55;;;;;;;29.40;26.80;;;;;;;;;;4978646;28;20577;-80
2024/03/11 10:35:22;;;;;;;31.20;28.30;;;;;;;;;;4979683;28;20872;-79
2024/03/11 10:37:51;;;;;;;29.37;26.77;;;;;;;;;;4978049;28;20472;-80
2024/03/11 10:40:18;;;;;;;26.57;24.07;;;;;;;;;;4979321;28;20462;-79
2024/03/11 10:42:53;;;;;;;28.13;25.53;;;;;;;;;;4979167;28;20477;-80
2024/03/11 10:45:35;;;;;;;25.70;23.50;;;;;;;;;;4979795;28;20463;-80
2024/03/11 10:48:02;;;;;;;23.60;21.57;;;;;;;;;;4975165;28;20428;-80
2024/03/11 10:50:30;;;;;;;23.40;21.70;;;;;;;;;;4979237;28;20451;-80
2024/03/11 10:52:58;;;;;;;23.50;21.53;;;;;;;;;;4980404;28;20535;-81
2024/03/11 10:55:32;;;;;;;21.90;20.10;;;;;;;;;;4978674;28;20456;-79
2024/03/11 10:58:01;;;;;;;24.80;22.37;;;;;;;;;;4979768;28;20493;-79
2024/03/11 11:00:33;;;;;;;23.00;21.17;;;;;;;;;;4979294;28;20489;-80
2024/03/11 11:03:07;;;;;;;23.80;21.87;;;;;;;;;;4976336;28;20473;-79
2024/03/11 11:05:42;;;;;;;22.37;20.67;;;;;;;;;;4978920;28;20434;-79
2024/03/11 11:08:12;;;;;;;21.83;20.17;;;;;;;;;;4979404;28;20434;-80
2024/03/11 11:10:39;;;;;;;22.77;20.97;;;;;;;;;;4978970;28;20997;-80
2024/03/11 11:13:08;;;;;;;22.07;20.43;;;;;;;;;;4978156;28;20498;-80
2024/03/11 11:15:36;;;;;;;23.47;21.40;;;;;;;;;;4978730;28;20464;-79
2024/03/11 11:18:04;;;;;;;22.53;20.90;;;;;;;;;;4979211;28;20501;-80
2024/03/11 11:20:34;;;;;;;21.87;20.33;;;;;;;;;;4978170;28;20503;-81
2024/03/11 11:23:02;;;;;;;21.30;19.80;;;;;;;;;;4978949;28;20422;-79
2024/03/11 11:25:39;;;;;;;21.70;20.00;;;;;;;;;;4978350;28;20496;-79
2024/03/11 11:28:08;;;;;;;20.10;18.70;;;;;;;;;;4979144;28;20517;-81
2024/03/11 11:30:36;;;;;;;17.57;16.57;;;;;;;;;;4977969;28;20450;-81
2024/03/11 11:33:04;;;;;;;17.20;16.20;;;;;;;;;;4978145;28;20480;-81
2024/03/11 11:35:35;;;;;;;16.87;15.97;;;;;;;;;;4978015;28;20552;-79
2024/03/11 11:38:17;;;;;;;16.97;16.07;;;;;;;;;;4978786;28;20454;-79
2024/03/11 11:40:45;;;;;;;15.80;15.10;;;;;;;;;;4975615;28;20438;-80
2024/03/11 11:43:22;;;;;;;14.13;13.53;;;;;;;;;;4977919;28;20885;-79
2024/03/11 11:45:52;;;;;;;15.27;14.47;;;;;;;;;;4977943;28;20435;-80
2024/03/11 11:48:25;;;;;;;14.80;14.20;;;;;;;;;;4978164;28;20497;-79
2024/03/11 11:50:57;;;;;;;15.33;14.63;;;;;;;;;;4976635;28;20435;-80
2024/03/11 11:53:29;;;;;;;14.40;13.80;;;;;;;;;;4977806;28;20498;-79
2024/03/11 11:55:57;;;;;;;15.33;14.63;;;;;;;;;;4977560;28;20553;-79
2024/03/11 11:58:26;;;;;;;15.10;14.40;;;;;;;;;;4978665;28;20435;-80
2024/03/11 12:01:01;;;;;;;14.93;14.20;;;;;;;;;;4977269;28;20441;-80
2024/03/11 12:03:30;;;;;;;14.93;14.33;;;;;;;;;;4977779;28;20472;-79
2024/03/11 12:06:17;;;;;;;14.40;13.80;;;;;;;;;;4977522;28;20485;-80
2024/03/11 12:08:44;;;;;;;14.70;14.10;;;;;;;;;;4977431;28;20555;-81
2024/03/11 12:11:14;;;;;;;14.80;14.20;;;;;;;;;;4977463;28;20457;-80
2024/03/11 12:13:46;;;;;;;14.73;14.13;;;;;;;;;;4976976;28;20840;-79
2024/03/11 12:16:20;;;;;;;14.43;13.83;;;;;;;;;;4976816;28;20961;-80
2024/03/11 12:18:59;;;;;;;14.60;14.00;;;;;;;;;;4977240;28;20911;-80
2024/03/11 12:21:28;;;;;;;15.13;14.53;;;;;;;;;;4975639;28;20421;-81
2024/03/11 12:23:55;;;;;;;14.80;14.00;;;;;;;;;;4976896;28;20451;-81
2024/03/11 12:26:23;;;;;;;14.30;13.70;;;;;;;;;;4976409;28;20456;-80
2024/03/11 12:29:04;;;;;;;14.83;14.23;;;;;;;;;;4977382;28;20450;-80
2024/03/11 12:31:32;;;;;;;14.60;14.00;;;;;;;;;;4976116;28;20432;-81
2024/03/11 12:34:00;;;;;;;14.67;14.07;;;;;;;;;;4977242;28;20472;-80
2024/03/11 12:36:29;;;;;;;14.30;13.70;;;;;;;;;;4976985;28;20937;-80
2024/03/11 12:38:56;;;;;;;14.60;14.00;;;;;;;;;;4977339;28;20478;-80
2024/03/11 12:41:38;;;;;;;14.67;14.07;;;;;;;;;;4976496;28;20451;-80
2024/03/11 12:44:13;;;;;;;14.83;14.23;;;;;;;;;;4973924;28;20470;-80
2024/03/11 12:46:41;;;;;;;14.30;13.73;;;;;;;;;;4984894;28;20426;-80
2024/03/11 12:49:11;;;;;;;15.23;14.63;;;;;;;;;;4986425;28;20446;-81
2024/03/11 12:51:38;;;;;;;15.00;14.40;;;;;;;;;;4985695;28;20431;-81
2024/03/11 12:54:19;;;;;;;15.37;14.77;;;;;;;;;;4992654;28;21071;-81
2024/03/11 12:56:51;;;;;;;14.90;14.30;;;;;;;;;;4993207;28;20477;-79
2024/03/11 12:59:19;;;;;;;15.00;14.40;;;;;;;;;;4986937;28;20493;-80
2024/03/11 13:01:46;;;;;;;15.17;14.57;;;;;;;;;;4976536;28;20434;-81
2024/03/11 13:04:20;;;;;;;15.03;14.43;;;;;;;;;;4976791;28;20565;-80
2024/03/11 13:06:48;;;;;;;16.00;15.10;;;;;;;;;;4977772;28;20453;-81
2024/03/11 13:09:23;;;;;;;15.13;14.43;;;;;;;;;;4977217;28;20454;-79
2024/03/11 13:11:54;;;;;;;15.73;15.13;;;;;;;;;;4975976;28;20461;-80
2024/03/11 13:14:22;;;;;;;15.77;15.07;;;;;;;;;;4975786;28;20540;-81
2024/03/11 13:16:53;;;;;;;15.30;14.70;;;;;;;;;;4976610;28;20457;-80
2024/03/11 13:19:22;;;;;;;16.30;15.70;;;;;;;;;;4977289;28;20410;-80
2024/03/11 13:21:51;;;;;;;16.17;15.50;;;;;;;;;;4975860;28;20425;-80
2024/03/11 13:24:19;;;;;;;16.50;15.80;;;;;;;;;;4976424;28;20508;-80
2024/03/11 13:26:48;;;;;;;16.00;15.30;;;;;;;;;;4977770;28;20432;-80
2024/03/11 13:29:15;;;;;;;16.03;15.33;;;;;;;;;;4980888;28;20462;-79
2024/03/11 13:31:44;;;;;;;16.07;15.37;;;;;;;;;;4979544;28;20946;-80
2024/03/11 13:34:12;;;;;;;15.77;15.17;;;;;;;;;;4980137;28;20501;-82
2024/03/11 13:36:39;;;;;;;16.10;15.40;;;;;;;;;;4980497;28;20454;-80
2024/03/11 13:39:15;;;;;;;16.07;15.37;;;;;;;;;;4980453;28;20427;-80
2024/03/11 13:41:43;;;;;;;16.50;15.80;;;;;;;;;;4980557;28;20435;-80
2024/03/11 13:44:10;;;;;;;16.30;15.60;;;;;;;;;;4980413;28;21056;-81
2024/03/11 13:46:37;;;;;;;15.73;15.13;;;;;;;;;;4980160;28;20448;-80
2024/03/11 13:49:07;;;;;;;15.60;14.90;;;;;;;;;;4980126;28;20434;-81
2024/03/11 13:51:36;;;;;;;16.00;15.40;;;;;;;;;;4980048;28;20489;-81
2024/03/11 13:54:03;;;;;;;15.60;15.00;;;;;;;;;;4980076;28;20486;-80
2024/03/11 13:56:31;;;;;;;15.60;15.00;;;;;;;;;;4980365;28;20513;-81
2024/03/11 13:59:01;;;;;;;16.13;15.43;;;;;;;;;;4979827;28;20485;-80
2024/03/11 14:01:29;;;;;;;15.80;15.10;;;;;;;;;;4978940;28;20449;-81
2024/03/11 14:03:56;;;;;;;15.63;15.03;;;;;;;;;;4979890;28;20474;-81
2024/03/11 14:06:25;;;;;;;15.30;14.70;;;;;;;;;;4980399;28;20506;-80
2024/03/11 14:08:53;;;;;;;16.30;15.60;;;;;;;;;;4980059;28;20748;-80
2024/03/11 14:11:20;;;;;;;15.60;15.00;;;;;;;;;;4979708;28;20454;-80
2024/03/11 14:13:47;;;;;;;15.60;14.90;;;;;;;;;;4979227;28;21060;-80
2024/03/11 14:16:15;;;;;;;15.53;14.93;;;;;;;;;;4980012;28;20484;-80
2024/03/11 14:18:43;;;;;;;16.07;15.37;;;;;;;;;;4979803;28;20429;-80
2024/03/11 14:21:10;;;;;;;15.40;14.80;;;;;;;;;;4979150;28;20447;-81
2024/03/11 14:23:39;;;;;;;15.50;14.90;;;;;;;;;;4978843;28;20562;-80
2024/03/11 14:26:10;;;;;;;16.60;15.90;;;;;;;;;;4979922;28;20461;-81
2024/03/11 14:28:38;;;;;;;15.30;14.70;;;;;;;;;;4979472;28;20454;-81